createdAt,value
2018-05-18T00:01:57.938Z,17.00
2018-05-18T00:04:25.378Z,17.00
2018-05-18T00:06:53.612Z,17.00
2018-05-18T00:09:21.058Z,17.00
2018-05-18T00:11:48.533Z,17.00
2018-05-18T00:14:16.082Z,17.00
2018-05-18T00:16:44.046Z,16.90
2018-05-18T00:19:11.509Z,17.00
2018-05-18T00:21:39.065Z,17.00
2018-05-18T00:24:06.506Z,17.00
2018-05-18T00:26:33.946Z,16.90
2018-05-18T00:29:01.386Z,16.90
2018-05-18T00:31:29.614Z,16.70
2018-05-18T00:33:57.058Z,16.80
2018-05-18T00:36:24.630Z,16.80
2018-05-18T00:38:52.091Z,16.80
2018-05-18T00:41:19.642Z,16.80
2018-05-18T00:43:47.082Z,16.80
2018-05-18T00:46:14.517Z,16.80
2018-05-18T00:48:41.959Z,16.80
2018-05-18T00:51:10.158Z,16.80
2018-05-18T00:53:37.646Z,16.80
2018-05-18T00:56:05.101Z,16.70
2018-05-18T00:58:32.558Z,16.60
2018-05-18T01:01:00.329Z,16.70
2018-05-18T01:03:27.769Z,16.70
2018-05-18T01:05:55.206Z,16.70
2018-05-18T01:08:22.653Z,16.60
2018-05-18T01:10:50.082Z,16.60
2018-05-18T01:13:17.605Z,16.60
2018-05-18T01:15:45.114Z,16.60
2018-05-18T01:18:12.517Z,16.60
2018-05-18T01:20:39.982Z,16.60
2018-05-18T01:23:07.434Z,16.60
2018-05-18T01:25:34.902Z,16.60
2018-05-18T01:28:02.358Z,16.60
2018-05-18T01:30:29.790Z,16.50
2018-05-18T01:32:57.235Z,16.50
2018-05-18T01:35:24.723Z,16.50
2018-05-18T01:37:52.182Z,16.50
2018-05-18T01:40:19.738Z,16.60
2018-05-18T01:42:47.626Z,16.50
2018-05-18T01:45:15.069Z,16.60
2018-05-18T01:47:42.619Z,16.60
2018-05-18T01:50:10.070Z,16.50
2018-05-18T01:52:37.510Z,16.40
2018-05-18T01:55:04.950Z,16.30
2018-05-18T01:57:32.451Z,16.30
2018-05-18T01:59:59.906Z,16.30
2018-05-18T02:02:27.442Z,16.30
2018-05-18T02:04:54.929Z,16.20
2018-05-18T02:07:22.366Z,16.20
2018-05-18T02:09:49.841Z,16.20
2018-05-18T02:12:17.303Z,16.10
2018-05-18T02:14:44.738Z,16.10
2018-05-18T02:17:12.212Z,16.10
2018-05-18T02:19:39.662Z,16.00
2018-05-18T02:22:07.106Z,16.00
2018-05-18T02:24:34.579Z,16.00
2018-05-18T02:27:02.036Z,15.90
2018-05-18T02:29:29.494Z,15.80
2018-05-18T02:31:57.399Z,15.90
2018-05-18T02:34:25.638Z,16.00
2018-05-18T02:36:53.195Z,16.00
2018-05-18T02:39:20.695Z,16.00
2018-05-18T02:41:48.213Z,15.80
2018-05-18T02:44:15.647Z,15.80
2018-05-18T02:46:43.088Z,15.80
2018-05-18T02:49:10.538Z,15.80
2018-05-18T02:51:38.038Z,15.90
2018-05-18T02:54:05.491Z,15.90
2018-05-18T02:56:33.684Z,15.70
2018-05-18T02:59:01.227Z,15.80
2018-05-18T03:01:28.678Z,15.70
2018-05-18T03:03:56.143Z,15.70
2018-05-18T03:06:23.580Z,15.70
2018-05-18T03:08:51.055Z,15.60
2018-05-18T03:11:18.498Z,15.70
2018-05-18T03:13:45.967Z,15.70
2018-05-18T03:16:13.406Z,15.70
2018-05-18T03:18:40.844Z,15.70
2018-05-18T03:21:08.374Z,15.60
2018-05-18T03:23:36.498Z,15.60
2018-05-18T03:26:03.968Z,15.60
2018-05-18T03:28:31.415Z,15.60
2018-05-18T03:30:58.858Z,15.50
2018-05-18T03:33:26.337Z,15.50
2018-05-18T03:35:53.794Z,15.40
2018-05-18T03:38:21.254Z,15.40
2018-05-18T03:40:48.706Z,15.40
2018-05-18T03:43:16.166Z,15.40
2018-05-18T03:45:43.648Z,15.40
2018-05-18T03:48:11.094Z,15.30
2018-05-18T03:50:38.646Z,15.30
2018-05-18T03:53:06.199Z,15.40
2018-05-18T03:55:33.642Z,15.40
2018-05-18T03:58:01.079Z,15.30
2018-05-18T04:00:28.571Z,15.30
2018-05-18T04:03:08.006Z,15.40
2018-05-18T04:08:48.894Z,15.30
2018-05-18T04:11:16.362Z,15.30
2018-05-18T04:13:43.818Z,15.30
2018-05-18T04:16:11.374Z,15.20
2018-05-18T04:18:38.812Z,15.20
2018-05-18T04:21:06.289Z,15.30
2018-05-18T04:23:33.725Z,15.30
2018-05-18T04:26:01.171Z,15.30
2018-05-18T04:28:28.662Z,15.20
2018-05-18T04:30:56.116Z,15.20
2018-05-18T04:33:23.570Z,15.30
2018-05-18T04:35:51.334Z,15.20
2018-05-18T04:38:18.795Z,15.30
2018-05-18T04:40:46.432Z,15.20
2018-05-18T04:43:13.994Z,15.20
2018-05-18T04:45:41.351Z,15.30
2018-05-18T04:48:08.871Z,15.30
2018-05-18T04:50:36.234Z,15.40
2018-05-18T04:53:04.454Z,15.40
2018-05-18T04:55:31.890Z,15.40
2018-05-18T04:57:59.371Z,15.40
2018-05-18T05:00:26.828Z,15.50
2018-05-18T05:02:54.282Z,15.50
2018-05-18T05:05:21.824Z,15.50
2018-05-18T05:07:49.814Z,15.60
2018-05-18T05:10:17.374Z,15.60
2018-05-18T05:12:44.806Z,15.50
2018-05-18T05:15:12.258Z,15.50
2018-05-18T05:17:40.359Z,15.60
2018-05-18T05:20:07.930Z,15.70
2018-05-18T05:22:35.474Z,15.70
2018-05-18T05:25:02.917Z,15.70
2018-05-18T05:27:30.389Z,15.70
2018-05-18T05:29:57.846Z,15.80
2018-05-18T05:32:25.302Z,15.80
2018-05-18T05:34:52.750Z,15.80
2018-05-18T05:37:20.218Z,15.80
2018-05-18T05:39:47.674Z,15.90
2018-05-18T05:42:15.122Z,15.90
2018-05-18T05:44:42.554Z,15.90
2018-05-18T05:47:10.042Z,15.90
2018-05-18T05:49:37.490Z,16.00
2018-05-18T05:52:04.958Z,16.00
2018-05-18T05:54:32.398Z,15.90
2018-05-18T05:56:59.842Z,16.00
2018-05-18T05:59:27.340Z,16.10
2018-05-18T06:01:55.002Z,16.10
2018-05-18T06:04:22.549Z,16.10
2018-05-18T06:06:50.630Z,16.10
2018-05-18T06:09:18.074Z,16.00
2018-05-18T06:11:45.517Z,16.10
2018-05-18T06:14:12.955Z,16.00
2018-05-18T06:16:40.454Z,16.10
2018-05-18T06:19:07.922Z,16.10
2018-05-18T06:21:35.468Z,16.10
2018-05-18T06:24:02.910Z,16.10
2018-05-18T06:26:30.342Z,16.10
2018-05-18T06:28:57.779Z,16.10
2018-05-18T06:31:26.027Z,16.10
2018-05-18T06:33:53.459Z,16.10
2018-05-18T06:36:20.903Z,16.10
2018-05-18T06:38:48.346Z,16.20
2018-05-18T06:41:15.865Z,16.10
2018-05-18T06:43:44.015Z,16.10
2018-05-18T06:46:11.470Z,16.10
2018-05-18T06:48:38.926Z,16.10
2018-05-18T06:51:06.465Z,16.20
2018-05-18T06:53:33.898Z,16.20
2018-05-18T06:56:01.342Z,16.20
2018-05-18T06:58:29.546Z,16.20
2018-05-18T07:00:56.978Z,16.10
2018-05-18T07:03:25.190Z,16.30
2018-05-18T07:05:52.662Z,16.20
2018-05-18T07:08:20.113Z,16.20
2018-05-18T07:10:47.574Z,16.30
2018-05-18T07:13:15.022Z,16.30
2018-05-18T07:15:42.481Z,16.30
2018-05-18T07:18:09.934Z,16.40
2018-05-18T07:20:37.363Z,16.40
2018-05-18T07:23:04.943Z,16.40
2018-05-18T07:25:32.317Z,16.50
2018-05-18T07:27:59.770Z,16.50
2018-05-18T07:30:27.226Z,16.40
2018-05-18T07:32:54.672Z,16.50
2018-05-18T07:35:22.110Z,16.50
2018-05-18T07:37:49.598Z,16.50
2018-05-18T07:40:17.071Z,16.50
2018-05-18T07:42:44.618Z,16.50
2018-05-18T07:45:12.074Z,16.50
2018-05-18T07:47:39.533Z,16.50
2018-05-18T07:50:07.105Z,16.50
2018-05-18T07:52:34.542Z,16.60
2018-05-18T07:55:02.015Z,16.60
2018-05-18T07:57:29.446Z,16.50
2018-05-18T07:59:56.914Z,16.50
2018-05-18T08:02:24.359Z,16.50
2018-05-18T08:04:51.859Z,16.60
2018-05-18T08:07:19.290Z,16.70
2018-05-18T08:09:46.770Z,16.70
2018-05-18T08:12:14.302Z,16.80
2018-05-18T08:14:42.505Z,16.80
2018-05-18T08:17:09.959Z,16.80
2018-05-18T08:19:37.499Z,16.80
2018-05-18T08:22:04.935Z,16.80
2018-05-18T08:24:32.430Z,16.80
2018-05-18T08:27:11.897Z,16.80
2018-05-18T08:29:39.434Z,16.70
2018-05-18T08:32:06.970Z,16.80
2018-05-18T08:34:34.433Z,16.80
2018-05-18T08:37:01.867Z,16.80
2018-05-18T08:39:29.339Z,16.80
2018-05-18T08:41:56.822Z,16.80
2018-05-18T08:44:24.373Z,16.90
2018-05-18T08:46:51.812Z,16.90
2018-05-18T08:49:19.241Z,16.90
2018-05-18T08:51:46.936Z,16.90
2018-05-18T08:54:14.469Z,16.90
2018-05-18T08:56:41.982Z,16.90
2018-05-18T08:59:09.410Z,17.00
2018-05-18T09:01:36.959Z,17.10
2018-05-18T09:04:04.425Z,17.10
2018-05-18T09:06:32.007Z,17.10
2018-05-18T09:08:59.458Z,17.20
2018-05-18T09:11:26.998Z,17.10
2018-05-18T09:13:54.437Z,17.10
2018-05-18T09:16:21.903Z,17.10
2018-05-18T09:18:49.406Z,17.10
2018-05-18T09:21:17.651Z,17.10
2018-05-18T09:23:45.241Z,17.10
2018-05-18T09:26:12.698Z,17.10
2018-05-18T09:28:40.131Z,17.10
2018-05-18T09:31:07.606Z,17.10
2018-05-18T09:33:35.158Z,17.20
2018-05-18T09:36:02.594Z,17.30
2018-05-18T09:38:30.029Z,17.30
2018-05-18T09:40:57.530Z,17.30
2018-05-18T09:43:24.960Z,17.30
2018-05-18T09:45:52.422Z,17.30
2018-05-18T09:48:19.883Z,17.40
2018-05-18T09:50:47.325Z,17.40
2018-05-18T09:53:14.810Z,17.40
2018-05-18T09:55:42.271Z,17.50
2018-05-18T09:58:09.714Z,17.50
2018-05-18T10:00:37.346Z,17.40
2018-05-18T10:03:04.750Z,17.50
2018-05-18T10:05:32.230Z,17.40
2018-05-18T10:08:00.450Z,17.60
2018-05-18T10:10:27.876Z,17.50
2018-05-18T10:12:55.362Z,17.60
2018-05-18T10:15:22.823Z,17.60
2018-05-18T10:17:50.286Z,17.70
2018-05-18T10:20:17.762Z,17.70
2018-05-18T10:22:45.300Z,17.70
2018-05-18T10:25:12.750Z,17.70
2018-05-18T10:27:40.215Z,17.70
2018-05-18T10:30:07.698Z,17.70
2018-05-18T10:32:35.247Z,17.60
2018-05-18T10:35:02.715Z,17.60
2018-05-18T10:37:30.174Z,17.60
2018-05-18T10:39:57.606Z,17.50
2018-05-18T10:42:25.077Z,17.50
2018-05-18T10:44:52.635Z,17.50
2018-05-18T10:47:20.071Z,17.60
2018-05-18T10:49:47.519Z,17.80
2018-05-18T10:52:14.958Z,18.00
2018-05-18T10:54:42.423Z,18.20
2018-05-18T10:57:09.894Z,18.20
2018-05-18T10:59:37.332Z,18.30
2018-05-18T11:02:04.774Z,18.30
2018-05-18T11:04:32.210Z,18.20
2018-05-18T11:07:00.451Z,18.10
2018-05-18T11:09:27.890Z,18.10
2018-05-18T11:11:55.370Z,18.10
2018-05-18T11:14:22.833Z,18.00
2018-05-18T11:16:50.265Z,18.00
2018-05-18T11:19:17.724Z,18.10
2018-05-18T11:21:45.209Z,18.10
2018-05-18T11:24:12.640Z,18.10
2018-05-18T11:26:40.101Z,18.10
2018-05-18T11:29:07.588Z,18.20
2018-05-18T11:31:35.014Z,18.20
2018-05-18T11:34:02.479Z,18.20
2018-05-18T11:36:29.934Z,18.20
2018-05-18T11:38:57.406Z,18.20
2018-05-18T11:41:25.549Z,18.20
2018-05-18T11:43:53.137Z,18.20
2018-05-18T11:46:20.594Z,18.10
2018-05-18T11:48:48.156Z,18.20
2018-05-18T11:51:15.614Z,18.20
2018-05-18T11:53:43.079Z,18.20
2018-05-18T11:56:10.545Z,18.30
2018-05-18T11:58:37.980Z,18.30
2018-05-18T12:01:05.544Z,18.30
2018-05-18T12:03:33.098Z,18.20
2018-05-18T12:06:00.658Z,18.20
2018-05-18T12:08:28.129Z,18.10
2018-05-18T12:10:55.654Z,18.10
2018-05-18T12:13:23.102Z,18.10
2018-05-18T12:15:50.590Z,18.20
2018-05-18T12:18:18.122Z,18.10
2018-05-18T12:20:45.706Z,18.20
2018-05-18T12:23:13.172Z,18.20
2018-05-18T12:25:40.676Z,18.20
2018-05-18T12:28:08.100Z,18.30
2018-05-18T12:30:36.437Z,18.30
2018-05-18T12:33:03.912Z,18.30
2018-05-18T12:35:31.487Z,18.40
2018-05-18T12:37:58.981Z,18.30
2018-05-18T12:40:27.177Z,18.20
2018-05-18T12:42:54.942Z,18.20
2018-05-18T12:45:22.410Z,18.20
2018-05-18T12:47:49.962Z,18.30
2018-05-18T12:50:17.419Z,18.30
2018-05-18T12:52:44.883Z,18.40
2018-05-18T12:55:12.358Z,18.40
2018-05-18T12:57:39.894Z,18.50
2018-05-18T13:00:07.357Z,18.60
2018-05-18T13:02:34.810Z,18.70
2018-05-18T13:05:02.370Z,18.70
2018-05-18T13:07:29.818Z,18.60
2018-05-18T13:09:57.685Z,18.60
2018-05-18T13:12:25.155Z,18.60
2018-05-18T13:14:52.636Z,18.60
2018-05-18T13:17:20.102Z,18.50
2018-05-18T13:19:48.338Z,18.50
2018-05-18T13:22:15.817Z,18.50
2018-05-18T13:24:43.246Z,18.40
2018-05-18T13:27:10.734Z,18.40
2018-05-18T13:29:38.193Z,18.30
2018-05-18T13:32:05.722Z,18.40
2018-05-18T13:34:33.206Z,18.40
2018-05-18T13:37:00.654Z,18.40
2018-05-18T13:39:28.127Z,18.50
2018-05-18T13:41:55.581Z,18.60
2018-05-18T13:44:23.110Z,18.50
2018-05-18T13:46:50.570Z,18.40
2018-05-18T13:49:18.010Z,18.40
2018-05-18T13:51:45.549Z,18.40
2018-05-18T13:54:13.079Z,18.40
2018-05-18T13:56:40.698Z,18.40
2018-05-18T13:59:08.145Z,18.40
2018-05-18T14:01:35.591Z,18.40
2018-05-18T14:04:03.049Z,18.30
2018-05-18T14:06:30.482Z,18.40
2018-05-18T14:08:58.046Z,18.30
2018-05-18T14:11:26.258Z,18.20
2018-05-18T14:13:53.747Z,18.20
2018-05-18T14:16:21.214Z,18.30
2018-05-18T14:18:48.738Z,18.20
2018-05-18T14:21:16.202Z,18.20
2018-05-18T14:23:43.625Z,18.20
2018-05-18T14:26:11.067Z,18.30
2018-05-18T14:28:38.497Z,18.20
2018-05-18T14:31:06.762Z,18.30
2018-05-18T14:33:34.218Z,18.30
2018-05-18T14:36:01.778Z,18.30
2018-05-18T14:38:29.242Z,18.20
2018-05-18T14:40:56.666Z,18.20
2018-05-18T14:43:24.149Z,18.20
2018-05-18T14:45:51.582Z,18.10
2018-05-18T14:48:19.050Z,18.10
2018-05-18T14:50:46.490Z,18.00
2018-05-18T14:53:13.966Z,18.00
2018-05-18T14:55:41.439Z,18.10
2018-05-18T14:58:09.005Z,18.00
2018-05-18T15:00:36.554Z,17.90
2018-05-18T15:03:04.082Z,17.90
2018-05-18T15:05:31.543Z,17.90
2018-05-18T15:07:59.007Z,18.00
2018-05-18T15:10:26.454Z,18.10
2018-05-18T15:12:53.890Z,18.20
2018-05-18T15:15:21.369Z,18.40
2018-05-18T15:17:48.829Z,18.30
2018-05-18T15:20:16.283Z,18.20
2018-05-18T15:22:43.734Z,18.20
2018-05-18T15:25:11.198Z,18.20
2018-05-18T15:27:38.662Z,18.20
2018-05-18T15:30:06.622Z,18.20
2018-05-18T15:32:34.078Z,18.20
2018-05-18T15:35:01.516Z,18.20
2018-05-18T15:37:28.986Z,18.20
2018-05-18T15:39:56.431Z,18.10
2018-05-18T15:42:23.938Z,18.10
2018-05-18T15:44:51.365Z,18.20
2018-05-18T15:47:19.029Z,18.20
2018-05-18T15:49:46.582Z,18.10
2018-05-18T15:52:14.042Z,18.00
2018-05-18T15:54:41.493Z,18.00
2018-05-18T15:57:08.934Z,17.90
2018-05-18T15:59:37.066Z,17.90
2018-05-18T16:02:04.618Z,17.90
2018-05-18T16:04:32.083Z,17.80
2018-05-18T16:06:59.610Z,17.80
2018-05-18T16:09:27.082Z,17.80
2018-05-18T16:11:54.541Z,17.80
2018-05-18T16:14:22.002Z,17.80
2018-05-18T16:16:49.478Z,17.70
2018-05-18T16:19:17.738Z,17.70
2018-05-18T16:21:45.265Z,17.70
2018-05-18T16:24:12.738Z,17.80
2018-05-18T16:26:40.199Z,17.70
2018-05-18T16:29:07.642Z,17.80
2018-05-18T16:31:35.095Z,17.70
2018-05-18T16:34:02.554Z,17.60
2018-05-18T16:36:30.031Z,17.60
2018-05-18T16:38:57.598Z,17.70
2018-05-18T16:41:26.034Z,17.70
2018-05-18T16:43:53.514Z,17.70
2018-05-18T16:46:21.005Z,17.70
2018-05-18T16:48:49.265Z,17.60
2018-05-18T16:51:17.525Z,17.50
2018-05-18T16:53:45.084Z,17.60
2018-05-18T16:56:12.646Z,18.00
2018-05-18T16:58:40.090Z,17.60
2018-05-18T17:01:07.737Z,17.60
2018-05-18T17:03:35.175Z,17.70
2018-05-18T17:06:02.626Z,17.60
2018-05-18T17:08:30.160Z,17.50
2018-05-18T17:10:57.590Z,17.50
2018-05-18T17:13:25.170Z,17.40
2018-05-18T17:15:52.631Z,17.50
2018-05-18T17:18:20.083Z,17.40
2018-05-18T17:20:47.510Z,17.40
2018-05-18T17:23:14.946Z,17.50
2018-05-18T17:25:42.425Z,17.50
2018-05-18T17:28:09.879Z,17.40
2018-05-18T17:30:37.307Z,17.40
2018-05-18T17:33:04.774Z,17.50
2018-05-18T17:35:32.213Z,17.40
2018-05-18T17:37:59.642Z,17.40
2018-05-18T17:40:27.860Z,17.30
2018-05-18T17:42:55.329Z,17.30
2018-05-18T17:45:22.760Z,17.30
2018-05-18T17:47:50.216Z,17.30
2018-05-18T17:50:18.426Z,17.30
2018-05-18T17:52:45.889Z,17.30
2018-05-18T17:55:13.321Z,17.30
2018-05-18T17:57:40.798Z,17.30
2018-05-18T18:00:08.228Z,17.30
2018-05-18T18:02:35.706Z,17.20
2018-05-18T18:05:03.135Z,17.20
2018-05-18T18:07:30.577Z,17.20
2018-05-18T18:09:58.786Z,17.20
2018-05-18T18:12:26.221Z,17.10
2018-05-18T18:14:53.874Z,17.20
2018-05-18T18:17:21.307Z,17.20
2018-05-18T18:19:49.538Z,17.10
2018-05-18T18:22:16.990Z,17.10
2018-05-18T18:24:44.453Z,17.00
2018-05-18T18:27:11.882Z,17.00
2018-05-18T18:29:39.342Z,17.00
2018-05-18T18:32:06.826Z,17.00
2018-05-18T18:34:34.273Z,17.00
2018-05-18T18:37:01.734Z,17.00
2018-05-18T18:39:29.189Z,16.90
2018-05-18T18:41:56.618Z,16.90
2018-05-18T18:44:24.058Z,16.90
2018-05-18T18:46:52.304Z,16.90
2018-05-18T18:49:19.736Z,16.80
2018-05-18T18:51:47.194Z,16.80
2018-05-18T18:54:14.669Z,16.80
2018-05-18T18:56:42.099Z,16.80
2018-05-18T18:59:09.558Z,16.70
2018-05-18T19:01:37.000Z,16.70
2018-05-18T19:04:04.467Z,16.80
2018-05-18T19:06:31.937Z,16.80
2018-05-18T19:08:59.381Z,16.70
2018-05-18T19:11:26.847Z,16.70
2018-05-18T19:13:54.274Z,16.70
2018-05-18T19:16:21.729Z,16.70
2018-05-18T19:18:49.926Z,16.60
2018-05-18T19:21:17.382Z,16.50
2018-05-18T19:23:44.850Z,16.50
2018-05-18T19:26:12.322Z,16.50
2018-05-18T19:28:39.749Z,16.50
2018-05-18T19:31:07.188Z,16.40
2018-05-18T19:33:34.623Z,16.40
2018-05-18T19:36:02.850Z,16.40
2018-05-18T19:38:30.875Z,16.40
2018-05-18T19:40:59.090Z,16.30
2018-05-18T19:43:26.566Z,16.30
2018-05-18T19:45:53.997Z,16.30
2018-05-18T19:48:21.431Z,16.30
2018-05-18T19:50:49.639Z,16.30
2018-05-18T19:53:17.095Z,16.30
2018-05-18T19:55:44.522Z,16.30
2018-05-18T19:58:12.005Z,16.30
2018-05-18T20:00:40.170Z,16.10
2018-05-18T20:03:07.642Z,16.10
2018-05-18T20:05:35.098Z,16.10
2018-05-18T20:08:02.522Z,16.10
2018-05-18T20:10:29.974Z,16.10
2018-05-18T20:12:58.193Z,16.10
2018-05-18T20:15:25.646Z,16.10
2018-05-18T20:17:53.103Z,16.00
2018-05-18T20:20:20.562Z,16.00
2018-05-18T20:22:48.039Z,16.00
2018-05-18T20:25:15.530Z,16.00
2018-05-18T20:27:43.737Z,16.00
2018-05-18T20:30:11.214Z,16.00
2018-05-18T20:32:38.643Z,15.90
2018-05-18T20:35:06.107Z,15.90
2018-05-18T20:37:33.534Z,15.90
2018-05-18T20:40:01.766Z,15.90
2018-05-18T20:42:29.197Z,15.80
2018-05-18T20:44:56.710Z,15.80
2018-05-18T20:47:24.175Z,15.80
2018-05-18T20:49:52.371Z,15.80
2018-05-18T20:52:19.834Z,15.80
2018-05-18T20:54:47.271Z,15.80
2018-05-18T20:57:15.490Z,15.80
2018-05-18T20:59:43.054Z,15.80
2018-05-18T21:02:10.631Z,15.90
2018-05-18T21:04:38.056Z,15.80
2018-05-18T21:07:05.514Z,15.80
2018-05-18T21:09:32.966Z,15.80
2018-05-18T21:12:00.422Z,15.80
2018-05-18T21:14:27.854Z,15.80
2018-05-18T21:16:55.286Z,15.80
2018-05-18T21:19:22.765Z,15.80
2018-05-18T21:21:50.992Z,15.80
2018-05-18T21:24:18.437Z,15.70
2018-05-18T21:26:45.899Z,15.70
2018-05-18T21:29:13.359Z,15.60
2018-05-18T21:31:40.878Z,15.60
2018-05-18T21:34:08.306Z,15.70
2018-05-18T21:36:36.508Z,15.70
2018-05-18T21:39:03.973Z,15.70
2018-05-18T21:41:31.435Z,15.70
2018-05-18T21:43:58.870Z,15.70
2018-05-18T21:46:27.078Z,15.60
2018-05-18T21:48:54.605Z,15.60
2018-05-18T21:51:22.846Z,15.50
2018-05-18T21:53:50.271Z,15.50
2018-05-18T21:56:17.750Z,15.60
2018-05-18T21:58:45.176Z,15.60
2018-05-18T22:01:12.643Z,15.50
2018-05-18T22:03:40.103Z,15.50
2018-05-18T22:06:07.579Z,15.50
2018-05-18T22:08:35.005Z,15.60
2018-05-18T22:11:02.470Z,15.60
2018-05-18T22:13:29.925Z,15.60
2018-05-18T22:15:57.385Z,15.60
2018-05-18T22:18:24.984Z,15.60
2018-05-18T22:20:52.406Z,15.60
2018-05-18T22:23:20.142Z,15.60
2018-05-18T22:25:47.885Z,15.50
2018-05-18T22:28:16.110Z,15.60
2018-05-18T22:30:43.580Z,15.60
2018-05-18T22:33:11.106Z,15.50
2018-05-18T22:35:38.582Z,15.40
2018-05-18T22:38:06.171Z,15.50
2018-05-18T22:40:34.514Z,15.50
2018-05-18T22:43:01.939Z,15.50
2018-05-18T22:45:29.382Z,15.40
2018-05-18T22:47:57.766Z,15.40
2018-05-18T22:50:26.386Z,15.40
2018-05-18T22:52:53.842Z,15.40
2018-05-18T22:55:21.294Z,15.30
2018-05-18T22:57:48.744Z,15.30
2018-05-18T23:00:22.214Z,15.30
2018-05-18T23:02:50.450Z,15.30
2018-05-18T23:05:18.050Z,15.20
2018-05-18T23:07:46.301Z,15.20
2018-05-18T23:10:13.719Z,15.10
2018-05-18T23:12:41.177Z,15.10
2018-05-18T23:15:08.613Z,15.10
2018-05-18T23:17:36.074Z,15.10
2018-05-18T23:20:03.521Z,15.10
2018-05-18T23:22:31.066Z,15.20
2018-05-18T23:24:59.258Z,15.30
2018-05-18T23:27:26.734Z,15.30
2018-05-18T23:29:54.180Z,15.30
2018-05-18T23:32:22.486Z,15.30
2018-05-18T23:34:49.952Z,15.30
2018-05-18T23:37:17.378Z,15.20
2018-05-18T23:39:44.838Z,15.30
2018-05-18T23:42:12.294Z,15.30
2018-05-18T23:44:39.759Z,15.30
2018-05-18T23:47:07.201Z,15.30
2018-05-18T23:49:34.657Z,15.30
2018-05-18T23:52:02.818Z,15.20
2018-05-18T23:54:30.338Z,15.20
2018-05-18T23:56:57.794Z,15.10
2018-05-18T23:59:25.238Z,15.20
